Time;durP1;ratioP1;P1;durP2;ratioP2;P2;SDS_P1;SDS_P2;PMS_P1;PMS_P2;Temp;Humidity;BMP_temperature;BMP_pressure;BME280_temperature;BME280_humidity;BME280_pressure;Samples;Min_cycle;Max_cycle;Signal;HPM_P1;HPM_P2
2021/07/03 00:01:57;;;;;;;17.60;13.93;;;;;;;16.92;96.84;99397.50;5115723;28;20184;-73
2021/07/03 00:04:25;;;;;;;15.57;13.07;;;;;;;17.08;95.06;99400.59;5115485;28;20318;-75
2021/07/03 00:06:51;;;;;;;17.08;13.00;;;;;;;17.00;95.03;99408.56;5115761;28;20243;-73
2021/07/03 00:09:19;;;;;;;13.85;11.75;;;;;;;16.95;94.82;99405.38;5115204;28;20284;-73
2021/07/03 00:11:47;;;;;;;18.65;12.77;;;;;;;16.77;95.54;99402.38;5115327;28;20278;-74
2021/07/03 00:14:14;;;;;;;18.20;15.65;;;;;;;16.81;96.85;99403.88;5115506;28;20199;-73
2021/07/03 00:16:41;;;;;;;23.60;16.02;;;;;;;16.88;96.07;99400.47;5115668;28;20184;-73
2021/07/03 00:19:08;;;;;;;21.33;15.60;;;;;;;16.83;96.16;99402.75;5115615;28;20600;-73
2021/07/03 00:21:34;;;;;;;26.05;21.33;;;;;;;16.97;95.71;99406.97;5115425;28;20232;-74
2021/07/03 00:24:01;;;;;;;20.95;15.32;;;;;;;16.85;96.02;99398.03;5105401;28;20315;-74
2021/07/03 00:26:29;;;;;;;16.55;14.38;;;;;;;16.82;96.71;99402.88;5095090;28;20210;-74
2021/07/03 00:28:55;;;;;;;20.10;15.75;;;;;;;16.69;97.83;99405.78;5100300;28;20322;-74
2021/07/03 00:31:22;;;;;;;20.10;16.40;;;;;;;16.67;98.04;99407.75;5114518;28;20630;-73
2021/07/03 00:33:49;;;;;;;20.83;16.90;;;;;;;16.54;98.91;99416.09;5114875;28;20289;-73
2021/07/03 00:36:15;;;;;;;20.63;17.25;;;;;;;16.54;98.97;99420.69;5114831;28;20191;-74
2021/07/03 00:38:42;;;;;;;18.50;14.93;;;;;;;16.38;99.83;99421.97;5114952;27;20206;-74
2021/07/03 00:41:09;;;;;;;22.20;15.48;;;;;;;16.43;100.00;99419.72;5114818;28;20217;-74
2021/07/03 00:43:37;;;;;;;18.08;13.48;;;;;;;16.46;98.77;99421.31;5114855;28;20225;-74
2021/07/03 00:46:03;;;;;;;16.83;13.93;;;;;;;16.40;98.98;99421.88;5114832;28;20207;-73
2021/07/03 00:48:30;;;;;;;17.83;13.65;;;;;;;16.43;99.28;99418.88;5114882;28;20203;-73
2021/07/03 00:50:57;;;;;;;21.08;14.38;;;;;;;16.42;99.49;99419.88;5114639;28;20186;-74
2021/07/03 00:53:24;;;;;;;19.20;13.60;;;;;;;16.42;99.34;99425.31;5105850;28;20234;-74
2021/07/03 00:55:53;;;;;;;17.58;13.77;;;;;;;16.32;99.96;99425.22;5094325;28;20191;-74
2021/07/03 00:58:20;;;;;;;14.70;13.23;;;;;;;16.13;100.00;99430.50;5094538;28;20204;-74
2021/07/03 01:00:48;;;;;;;18.77;13.45;;;;;;;15.97;100.00;99420.06;5105704;28;20288;-72
2021/07/03 01:03:15;;;;;;;15.77;12.30;;;;;;;16.04;100.00;99426.69;5114611;28;20534;-74
2021/07/03 01:05:41;;;;;;;17.95;14.38;;;;;;;16.14;100.00;99429.47;5114526;28;20314;-74
2021/07/03 01:08:08;;;;;;;19.27;13.98;;;;;;;16.13;100.00;99434.06;5114529;28;20555;-74
2021/07/03 01:10:35;;;;;;;15.20;12.73;;;;;;;16.02;100.00;99439.53;5114560;27;20708;-74
2021/07/03 01:13:01;;;;;;;15.75;12.77;;;;;;;16.03;100.00;99438.53;5114724;28;20207;-74
2021/07/03 01:15:28;;;;;;;16.30;13.20;;;;;;;15.80;100.00;99444.00;5114208;28;20183;-74
2021/07/03 01:17:56;;;;;;;14.68;12.80;;;;;;;15.82;100.00;99438.47;5114627;28;20183;-73
2021/07/03 01:20:22;;;;;;;14.95;13.00;;;;;;;15.81;100.00;99437.59;5114343;28;20230;-73
2021/07/03 01:22:50;;;;;;;14.60;12.98;;;;;;;15.80;100.00;99435.88;5112335;28;20187;-74
2021/07/03 01:25:18;;;;;;;16.48;13.40;;;;;;;15.73;100.00;99429.22;5113977;28;20276;-74
2021/07/03 01:27:57;;;;;;;17.55;12.85;;;;;;;15.74;100.00;99430.09;5113968;28;20645;-74
2021/07/03 01:30:24;;;;;;;16.02;13.27;;;;;;;15.64;100.00;99430.81;5114369;28;20644;-74
2021/07/03 01:32:50;;;;;;;15.10;13.50;;;;;;;15.69;100.00;99427.72;5113990;28;20541;-74
2021/07/03 01:35:17;;;;;;;14.40;12.90;;;;;;;15.68;100.00;99427.84;5113911;28;20183;-73
2021/07/03 01:37:43;;;;;;;15.20;13.40;;;;;;;15.67;100.00;99423.41;5114064;28;20609;-74
2021/07/03 01:40:13;;;;;;;19.83;13.75;;;;;;;15.61;100.00;99414.78;5113475;28;20290;-74
2021/07/03 01:42:40;;;;;;;16.38;13.23;;;;;;;15.56;100.00;99416.16;5113939;28;20664;-74
2021/07/03 01:45:08;;;;;;;15.15;12.95;;;;;;;15.59;100.00;99422.19;5113910;28;20180;-74
2021/07/03 01:47:42;;;;;;;14.68;12.90;;;;;;;15.56;100.00;99422.44;5113191;28;20290;-73
2021/07/03 01:50:09;;;;;;;20.20;13.75;;;;;;;15.74;100.00;99417.38;5113728;28;20184;-73
2021/07/03 01:52:37;;;;;;;16.60;12.60;;;;;;;15.91;100.00;99420.56;5106499;28;20190;-74
2021/07/03 01:55:05;;;;;;;13.55;12.20;;;;;;;15.70;100.00;99418.59;5093105;28;20734;-74
2021/07/03 01:57:33;;;;;;;16.40;14.00;;;;;;;15.52;100.00;99420.97;5092688;28;20195;-74
2021/07/03 02:00:00;;;;;;;18.90;14.07;;;;;;;15.46;100.00;99417.88;5092931;28;20195;-74
2021/07/03 02:02:26;;;;;;;17.90;13.57;;;;;;;15.47;100.00;99411.44;5092872;28;20210;-75
2021/07/03 02:04:53;;;;;;;16.40;13.48;;;;;;;15.34;100.00;99408.91;5092680;28;20722;-74
2021/07/03 02:07:19;;;;;;;18.23;13.93;;;;;;;15.34;100.00;99400.75;5093007;28;20645;-74
2021/07/03 02:09:46;;;;;;;14.40;13.00;;;;;;;15.30;100.00;99400.13;5093263;28;20541;-73
2021/07/03 02:12:12;;;;;;;20.17;13.95;;;;;;;15.30;100.00;99399.28;5093184;28;20275;-73
2021/07/03 02:14:40;;;;;;;15.68;13.95;;;;;;;15.16;100.00;99397.69;5092838;28;20183;-74
2021/07/03 02:17:07;;;;;;;19.00;16.40;;;;;;;15.41;100.00;99391.13;5093240;28;20195;-73
2021/07/03 02:19:33;;;;;;;24.63;14.95;;;;;;;15.45;100.00;99391.75;5092763;28;20192;-74
2021/07/03 02:22:00;;;;;;;17.52;14.40;;;;;;;15.33;100.00;99399.00;5092888;28;20271;-74
2021/07/03 02:24:27;;;;;;;21.10;14.48;;;;;;;15.28;100.00;99398.53;5094002;28;20729;-74
2021/07/03 02:26:53;;;;;;;16.55;14.32;;;;;;;15.16;100.00;99390.41;5092650;28;20243;-74
2021/07/03 02:29:20;;;;;;;14.85;12.65;;;;;;;15.30;100.00;99396.56;5092407;28;20289;-74
2021/07/03 02:31:48;;;;;;;19.00;13.05;;;;;;;15.21;100.00;99406.31;5109679;28;20775;-74
2021/07/03 02:34:15;;;;;;;18.35;14.38;;;;;;;15.27;100.00;99391.41;5113138;28;20186;-73
2021/07/03 02:36:41;;;;;;;16.65;14.02;;;;;;;15.23;100.00;99398.91;5113223;28;20550;-73
2021/07/03 02:39:08;;;;;;;17.63;13.85;;;;;;;14.98;100.00;99394.59;5093287;28;20680;-74
2021/07/03 02:41:34;;;;;;;14.60;12.73;;;;;;;15.07;100.00;99398.41;5092917;28;20237;-74
2021/07/03 02:44:01;;;;;;;17.13;14.35;;;;;;;15.18;100.00;99399.28;5092993;28;20271;-74
2021/07/03 02:46:28;;;;;;;19.10;14.57;;;;;;;15.33;100.00;99401.72;5092944;28;20310;-74
2021/07/03 02:48:56;;;;;;;16.33;13.68;;;;;;;15.29;100.00;99397.56;5092840;28;20837;-74
2021/07/03 02:51:22;;;;;;;17.58;14.50;;;;;;;15.54;100.00;99393.72;5092530;28;20199;-74
2021/07/03 02:53:49;;;;;;;16.38;13.60;;;;;;;15.43;100.00;99403.56;5099153;28;20197;-74
2021/07/03 02:56:16;;;;;;;17.58;14.50;;;;;;;15.48;100.00;99407.78;5112820;28;20279;-74
2021/07/03 02:58:42;;;;;;;17.52;13.88;;;;;;;15.37;100.00;99406.78;5112581;28;20231;-74
2021/07/03 03:01:09;;;;;;;22.73;15.70;;;;;;;15.39;100.00;99409.38;5112958;28;20987;-74
2021/07/03 03:03:36;;;;;;;17.75;14.90;;;;;;;15.43;100.00;99405.44;5112531;28;20238;-74
2021/07/03 03:06:04;;;;;;;16.05;14.35;;;;;;;15.38;100.00;99402.25;5112601;28;20214;-74
2021/07/03 03:08:30;;;;;;;19.20;14.70;;;;;;;15.33;100.00;99408.03;5115944;28;20203;-74
2021/07/03 03:10:57;;;;;;;19.02;15.85;;;;;;;15.19;100.00;99414.53;5116886;28;20194;-74
2021/07/03 03:13:23;;;;;;;19.00;14.63;;;;;;;15.18;100.00;99410.13;5116279;28;20207;-74
2021/07/03 03:15:50;;;;;;;22.25;14.38;;;;;;;15.23;100.00;99412.47;5116799;28;20214;-74
2021/07/03 03:18:17;;;;;;;18.48;14.68;;;;;;;15.12;100.00;99412.47;5116715;28;20188;-74
2021/07/03 03:20:43;;;;;;;16.38;13.57;;;;;;;15.26;100.00;99414.06;5116402;28;20727;-74
2021/07/03 03:23:11;;;;;;;17.02;14.70;;;;;;;15.21;100.00;99400.88;5116460;28;20191;-74
2021/07/03 03:25:38;;;;;;;17.48;13.70;;;;;;;15.14;100.00;99402.34;5097237;28;20188;-74
2021/07/03 03:28:05;;;;;;;16.67;12.95;;;;;;;15.13;100.00;99397.94;5096004;28;20294;-74
2021/07/03 03:30:31;;;;;;;16.90;14.75;;;;;;;15.12;100.00;99391.63;5095896;28;20194;-74
2021/07/03 03:32:58;;;;;;;15.73;13.10;;;;;;;15.09;100.00;99391.88;5095289;28;20199;-73
2021/07/03 03:35:25;;;;;;;16.90;13.90;;;;;;;15.02;100.00;99387.94;5095646;28;20294;-73
2021/07/03 03:37:51;;;;;;;15.80;13.00;;;;;;;14.86;100.00;99391.00;5095652;28;20207;-73
2021/07/03 03:40:20;;;;;;;19.52;14.30;;;;;;;14.89;100.00;99390.75;5095672;28;20637;-74
2021/07/03 03:42:47;;;;;;;17.00;13.57;;;;;;;14.83;100.00;99384.97;5095192;28;20206;-72
2021/07/03 03:45:15;;;;;;;16.25;13.45;;;;;;;14.75;100.00;99383.72;5095807;28;20615;-73
2021/07/03 03:47:42;;;;;;;14.80;12.88;;;;;;;14.77;100.00;99381.75;5095023;28;20302;-73
2021/07/03 03:50:10;;;;;;;13.93;12.18;;;;;;;14.62;100.00;99377.53;5094998;28;20200;-73
2021/07/03 03:52:36;;;;;;;17.10;14.13;;;;;;;14.68;100.00;99376.22;5095595;28;20279;-74
2021/07/03 03:55:04;;;;;;;16.30;13.98;;;;;;;14.75;100.00;99372.88;5104362;28;20208;-74
2021/07/03 03:57:32;;;;;;;16.58;12.32;;;;;;;14.93;100.00;99380.53;5115821;28;20912;-74
2021/07/03 04:00:00;;;;;;;15.30;13.07;;;;;;;14.89;100.00;99379.91;5115646;28;20189;-74
2021/07/03 04:02:27;;;;;;;18.52;14.13;;;;;;;15.04;100.00;99383.25;5115374;28;20285;-74
2021/07/03 04:04:54;;;;;;;19.15;14.75;;;;;;;15.20;100.00;99386.47;5115043;28;20269;-74
2021/07/03 04:07:21;;;;;;;15.75;13.18;;;;;;;15.28;100.00;99384.97;5114971;28;20206;-74
2021/07/03 04:09:49;;;;;;;17.58;13.88;;;;;;;15.13;100.00;99377.09;5115482;28;20238;-73
2021/07/03 04:12:16;;;;;;;14.13;12.40;;;;;;;15.13;100.00;99381.66;5115349;28;20625;-74
2021/07/03 04:14:44;;;;;;;22.15;14.23;;;;;;;15.39;99.51;99379.53;5115401;28;20625;-74
2021/07/03 04:17:10;;;;;;;21.55;14.05;;;;;;;15.53;98.50;99379.25;5115341;28;20199;-73
2021/07/03 04:19:37;;;;;;;19.20;14.80;;;;;;;15.61;97.42;99375.94;5115026;28;20198;-73
2021/07/03 04:22:04;;;;;;;17.92;15.82;;;;;;;15.64;97.03;99378.38;5115032;27;20199;-74
2021/07/03 04:24:31;;;;;;;15.15;13.45;;;;;;;15.82;94.66;99381.44;5103450;28;20275;-75
2021/07/03 04:26:57;;;;;;;17.35;13.45;;;;;;;15.99;93.99;99378.19;5094772;28;20326;-73
2021/07/03 04:29:24;;;;;;;13.80;12.38;;;;;;;15.78;93.65;99383.56;5094333;28;20191;-73
2021/07/03 04:31:52;;;;;;;15.65;12.63;;;;;;;16.09;92.50;99377.41;5111467;28;20191;-74
2021/07/03 04:34:19;;;;;;;28.15;15.38;;;;;;;16.12;92.18;99371.72;5114900;28;20286;-74
2021/07/03 04:36:45;;;;;;;15.45;12.95;;;;;;;16.04;91.55;99370.50;5114640;28;20359;-74
2021/07/03 04:39:12;;;;;;;15.38;13.52;;;;;;;16.02;92.34;99363.50;5114979;28;20553;-73
2021/07/03 04:41:39;;;;;;;17.77;13.73;;;;;;;15.87;93.20;99364.78;5114360;28;20209;-74
2021/07/03 04:44:07;;;;;;;14.23;12.32;;;;;;;15.68;94.40;99360.00;5114374;28;20278;-74
2021/07/03 04:46:33;;;;;;;26.45;13.60;;;;;;;15.61;95.86;99357.78;5101329;28;20260;-74
2021/07/03 04:49:02;;;;;;;14.63;13.07;;;;;;;15.62;95.81;99359.53;5093876;28;20200;-74
2021/07/03 04:51:29;;;;;;;16.92;14.15;;;;;;;15.72;96.30;99356.94;5093894;28;20274;-74
2021/07/03 04:53:55;;;;;;;16.15;13.60;;;;;;;15.93;94.82;99358.84;5093718;28;20630;-73
2021/07/03 04:56:22;;;;;;;14.55;13.05;;;;;;;15.76;94.94;99363.84;5093775;28;20654;-73
2021/07/03 04:58:49;;;;;;;15.90;12.55;;;;;;;15.73;95.09;99360.50;5093214;28;20184;-74
2021/07/03 05:01:15;;;;;;;22.15;13.80;;;;;;;15.62;96.85;99369.50;5093353;28;20184;-74
2021/07/03 05:03:42;;;;;;;21.88;15.07;;;;;;;15.67;98.85;99374.53;5093510;28;20582;-73
2021/07/03 05:06:10;;;;;;;17.55;13.63;;;;;;;15.95;95.83;99371.28;5093524;28;20245;-74
2021/07/03 05:08:36;;;;;;;18.88;14.15;;;;;;;16.12;94.71;99374.44;5093168;28;20200;-73
2021/07/03 05:11:03;;;;;;;17.08;14.70;;;;;;;16.19;94.56;99381.06;5093507;28;20207;-73
2021/07/03 05:13:30;;;;;;;19.95;15.30;;;;;;;16.16;93.66;99371.31;5093230;28;20275;-73
2021/07/03 05:15:57;;;;;;;17.15;14.10;;;;;;;16.39;92.24;99377.53;5093059;28;20241;-72
2021/07/03 05:18:24;;;;;;;18.70;14.85;;;;;;;16.59;90.69;99380.38;5093972;28;20190;-72
2021/07/03 05:20:50;;;;;;;19.88;14.77;;;;;;;16.71;89.48;99376.59;5104031;28;20283;-73
2021/07/03 05:23:18;;;;;;;20.20;15.63;;;;;;;16.51;91.16;99378.31;5093152;28;20300;-73
2021/07/03 05:25:45;;;;;;;18.52;15.38;;;;;;;16.72;91.12;99377.47;5092944;28;20184;-74
2021/07/03 05:28:12;;;;;;;19.48;14.75;;;;;;;16.93;88.96;99372.00;5092700;28;20582;-73
2021/07/03 05:30:40;;;;;;;18.90;14.93;;;;;;;16.83;89.21;99369.25;5092261;28;20585;-74
2021/07/03 05:33:06;;;;;;;16.17;14.02;;;;;;;16.80;89.29;99366.78;5093029;28;20187;-73
2021/07/03 05:35:33;;;;;;;22.40;16.33;;;;;;;16.98;89.42;99375.19;5092775;28;20633;-73
2021/07/03 05:38:00;;;;;;;16.25;14.07;;;;;;;17.26;86.99;99379.91;5092399;28;20190;-73
2021/07/03 05:40:28;;;;;;;21.13;13.45;;;;;;;17.35;85.54;99385.53;5092974;28;20224;-74
2021/07/03 05:42:54;;;;;;;16.27;13.57;;;;;;;17.57;84.66;99374.44;5092895;28;20717;-73
2021/07/03 05:45:21;;;;;;;19.67;14.10;;;;;;;18.00;82.01;99375.09;5092413;28;20541;-73
2021/07/03 05:47:51;;;;;;;21.38;14.80;;;;;;;17.94;82.25;99376.53;5092275;28;20200;-73
2021/07/03 05:50:18;;;;;;;17.75;13.65;;;;;;;18.41;80.03;99376.69;5092642;28;20195;-73
2021/07/03 05:52:45;;;;;;;17.02;14.05;;;;;;;18.69;78.34;99365.88;5092712;28;20193;-72
2021/07/03 05:55:12;;;;;;;20.40;15.23;;;;;;;18.95;76.66;99367.00;5092498;28;20183;-74
2021/07/03 05:57:40;;;;;;;17.40;14.90;;;;;;;19.02;76.56;99363.69;5092138;28;20209;-72
2021/07/03 06:00:09;;;;;;;16.20;13.25;;;;;;;18.73;77.39;99368.16;5092208;28;20197;-73
2021/07/03 06:02:36;;;;;;;16.08;14.13;;;;;;;18.49;79.02;99368.63;5092449;28;20281;-73
2021/07/03 06:05:03;;;;;;;16.33;13.95;;;;;;;18.29;80.70;99372.38;5092174;28;20727;-73
2021/07/03 06:07:30;;;;;;;21.00;15.10;;;;;;;18.05;82.44;99356.47;5092587;28;20210;-73
2021/07/03 06:09:56;;;;;;;18.90;14.70;;;;;;;18.34;81.51;99356.47;5092897;28;20225;-73
2021/07/03 06:12:24;;;;;;;21.52;15.82;;;;;;;18.79;80.02;99355.84;5092506;28;20194;-73
2021/07/03 06:14:52;;;;;;;14.70;12.73;;;;;;;18.82;78.42;99361.00;5092165;28;20282;-73
2021/07/03 06:17:19;;;;;;;17.77;14.77;;;;;;;18.67;79.63;99362.44;5091877;28;20203;-73
2021/07/03 06:19:46;;;;;;;15.98;14.00;;;;;;;18.78;79.72;99356.84;5092582;28;20609;-73
2021/07/03 06:22:14;;;;;;;18.10;14.68;;;;;;;19.08;78.99;99343.97;5092339;28;20221;-73
2021/07/03 06:24:42;;;;;;;19.23;14.63;;;;;;;19.47;76.90;99344.66;5092526;28;20717;-73
2021/07/03 06:27:08;;;;;;;18.02;15.23;;;;;;;19.62;75.49;99346.84;5091723;28;20238;-74
2021/07/03 06:29:35;;;;;;;18.17;15.50;;;;;;;19.75;75.22;99342.75;5091775;28;20209;-74
2021/07/03 06:32:04;;;;;;;16.45;13.90;;;;;;;19.54;75.35;99344.91;5092782;28;20659;-73
2021/07/03 06:34:31;;;;;;;15.32;13.68;;;;;;;19.63;75.30;99349.44;5092261;28;20619;-72
2021/07/03 06:36:58;;;;;;;15.25;12.43;;;;;;;19.67;75.39;99349.97;5092557;28;20606;-73
2021/07/03 06:39:24;;;;;;;13.80;12.40;;;;;;;19.88;74.42;99352.47;5091481;28;20188;-73
2021/07/03 06:41:51;;;;;;;14.65;13.10;;;;;;;20.12;72.98;99349.09;5092351;28;20275;-74
2021/07/03 06:44:18;;;;;;;17.63;12.98;;;;;;;19.91;73.59;99350.28;5095951;28;20198;-73
2021/07/03 06:46:46;;;;;;;12.77;11.57;;;;;;;19.97;73.76;99349.66;5096137;28;20189;-74
2021/07/03 06:49:14;;;;;;;13.82;12.40;;;;;;;19.88;73.78;99357.94;5096418;28;20206;-74
2021/07/03 06:51:41;;;;;;;15.32;12.80;;;;;;;19.95;73.78;99356.31;5114801;28;20196;-73
2021/07/03 06:54:08;;;;;;;13.55;12.18;;;;;;;20.16;73.05;99356.84;5116453;28;20282;-73
2021/07/03 06:56:35;;;;;;;17.60;14.40;;;;;;;20.23;73.10;99357.06;5114197;28;20274;-72
2021/07/03 06:59:02;;;;;;;19.80;17.70;;;;;;;20.65;72.03;99363.78;5116198;28;20592;-72
2021/07/03 07:01:28;;;;;;;16.40;14.67;;;;;;;21.01;70.31;99362.66;5114419;28;20519;-73
2021/07/03 07:03:55;;;;;;;16.50;13.67;;;;;;;21.01;69.51;99356.34;5108593;28;20468;-74
2021/07/03 07:06:23;;;;;;;14.93;11.87;;;;;;;21.22;69.26;99355.91;5095955;28;20422;-74
2021/07/03 07:08:49;;;;;;;12.07;10.87;;;;;;;21.11;68.87;99351.59;5095846;28;20481;-74
2021/07/03 07:11:16;;;;;;;15.90;11.80;;;;;;;21.15;69.08;99357.59;5095037;28;20451;-74
2021/07/03 07:13:42;;;;;;;11.17;10.07;;;;;;;21.28;68.62;99351.66;5094978;28;20430;-74
2021/07/03 07:16:09;;;;;;;13.03;11.53;;;;;;;21.62;67.44;99352.53;5095636;28;20775;-74
2021/07/03 07:18:36;;;;;;;11.70;10.60;;;;;;;21.58;67.66;99344.81;5100563;28;20477;-72
2021/07/03 07:21:03;;;;;;;12.63;10.83;;;;;;;21.58;67.70;99353.03;5115503;28;20425;-74
2021/07/03 07:23:31;;;;;;;11.73;10.53;;;;;;;21.94;66.67;99350.06;5114554;28;20418;-74
2021/07/03 07:25:58;;;;;;;12.97;11.50;;;;;;;22.19;65.38;99346.31;5095200;28;20919;-72
2021/07/03 07:28:24;;;;;;;13.83;11.20;;;;;;;21.99;65.83;99343.03;5095803;28;20565;-74
2021/07/03 07:30:51;;;;;;;14.43;10.80;;;;;;;22.26;64.81;99341.88;5095297;28;20422;-74
2021/07/03 07:33:17;;;;;;;12.13;10.80;;;;;;;22.39;64.02;99343.28;5095243;28;20528;-74
2021/07/03 07:35:44;;;;;;;12.20;11.00;;;;;;;22.54;64.16;99349.75;5095661;28;20426;-74
2021/07/03 07:38:11;;;;;;;13.37;11.97;;;;;;;22.57;63.86;99343.94;5095397;28;20429;-74
2021/07/03 07:40:39;;;;;;;13.07;11.23;;;;;;;22.78;62.30;99342.56;5095214;28;20450;-74
2021/07/03 07:43:06;;;;;;;14.50;12.07;;;;;;;23.00;59.81;99336.38;5095730;28;20484;-74
2021/07/03 07:45:32;;;;;;;19.90;14.77;;;;;;;23.12;58.87;99341.47;5095082;28;20850;-75
2021/07/03 07:47:59;;;;;;;10.73;9.50;;;;;;;23.42;57.92;99337.06;5101850;28;20564;-74
2021/07/03 07:50:26;;;;;;;8.83;8.03;;;;;;;23.30;56.48;99334.72;5096289;28;20930;-73
2021/07/03 07:52:52;;;;;;;10.90;9.80;;;;;;;23.43;56.70;99323.16;5112089;28;20429;-73
2021/07/03 07:55:19;;;;;;;10.10;9.10;;;;;;;23.73;55.41;99324.19;5113822;28;20456;-74
2021/07/03 07:57:47;;;;;;;10.40;8.63;;;;;;;23.75;55.08;99321.31;5115565;28;20518;-73
2021/07/03 08:00:17;;;;;;;10.10;9.10;;;;;;;24.01;54.38;99314.59;5115104;28;20585;-73
2021/07/03 08:02:44;;;;;;;9.17;8.33;;;;;;;24.15;53.89;99308.31;5114799;28;20486;-74
2021/07/03 08:05:12;;;;;;;8.93;7.87;;;;;;;23.72;54.38;99318.88;5114796;28;20472;-73
2021/07/03 08:07:38;;;;;;;12.43;9.20;;;;;;;24.04;53.80;99309.59;5099286;28;20473;-74
2021/07/03 08:10:06;;;;;;;10.37;9.27;;;;;;;24.22;53.17;99312.03;5094660;28;20458;-74
2021/07/03 08:12:33;;;;;;;10.10;9.10;;;;;;;24.24;53.19;99304.47;5095601;28;20447;-73
2021/07/03 08:15:01;;;;;;;10.00;9.00;;;;;;;24.47;52.42;99301.72;5114691;27;20421;-74
2021/07/03 08:17:28;;;;;;;8.90;7.63;;;;;;;24.67;51.38;99302.03;5114855;28;20996;-73
2021/07/03 08:19:54;;;;;;;8.33;7.43;;;;;;;24.93;50.86;99300.72;5099340;28;20526;-73
2021/07/03 08:22:21;;;;;;;9.73;8.70;;;;;;;25.10;50.10;99304.13;5097700;28;20528;-74
2021/07/03 08:24:47;;;;;;;11.87;8.33;;;;;;;25.00;50.37;99298.94;5114684;28;20440;-73
2021/07/03 08:27:14;;;;;;;8.03;7.23;;;;;;;25.01;49.90;99295.16;5114771;28;20421;-74
2021/07/03 08:29:41;;;;;;;9.70;6.73;;;;;;;25.21;47.77;99297.34;5114654;28;20709;-74
2021/07/03 08:32:09;;;;;;;7.30;6.60;;;;;;;25.31;48.00;99289.66;5114712;28;20469;-74
2021/07/03 08:34:35;;;;;;;8.27;7.47;;;;;;;25.31;48.65;99292.41;5099554;28;20833;-74
2021/07/03 08:37:02;;;;;;;6.97;6.33;;;;;;;25.44;47.45;99286.19;5093500;28;20863;-74
2021/07/03 08:39:29;;;;;;;8.13;6.80;;;;;;;25.50;46.67;99288.19;5093697;28;20460;-74
2021/07/03 08:41:55;;;;;;;9.07;8.10;;;;;;;25.61;47.69;99286.84;5093687;28;20434;-72
2021/07/03 08:44:22;;;;;;;8.50;7.70;;;;;;;25.00;49.38;99278.81;5093741;28;20437;-73
2021/07/03 08:46:49;;;;;;;8.40;7.50;;;;;;;25.03;48.92;99282.00;5093562;28;20448;-74
2021/07/03 08:49:17;;;;;;;8.40;7.63;;;;;;;25.09;47.45;99285.91;5093424;28;20478;-74
2021/07/03 08:51:47;;;;;;;9.33;8.43;;;;;;;25.31;47.64;99284.97;5093660;28;20808;-74
2021/07/03 08:54:14;;;;;;;6.47;5.87;;;;;;;25.65;46.64;99277.97;5093583;28;20458;-73
2021/07/03 08:56:40;;;;;;;8.40;7.60;;;;;;;25.78;45.39;99278.13;5093371;28;20434;-73
2021/07/03 08:59:15;;;;;;;7.30;6.70;;;;;;;25.87;44.31;99278.91;5093347;28;20462;-73
2021/07/03 09:01:48;;;;;;;8.00;7.20;;;;;;;26.02;45.49;99277.97;5105421;28;20427;-72
2021/07/03 09:04:15;;;;;;;6.93;6.30;;;;;;;25.97;45.25;99276.66;5113292;28;20577;-73
2021/07/03 09:06:43;;;;;;;6.73;6.03;;;;;;;26.01;44.22;99282.66;5113389;28;20445;-74
2021/07/03 09:09:10;;;;;;;7.17;6.47;;;;;;;26.18;44.09;99292.34;5113476;28;20492;-74
2021/07/03 09:11:36;;;;;;;8.17;7.20;;;;;;;26.14;43.21;99282.78;5113527;28;20441;-73
2021/07/03 09:14:07;;;;;;;7.90;6.27;;;;;;;26.39;42.34;99285.97;5113743;28;20428;-75
2021/07/03 09:16:36;;;;;;;7.17;6.47;;;;;;;26.44;42.04;99288.13;5103769;28;20521;-74
2021/07/03 09:19:03;;;;;;;6.27;5.67;;;;;;;26.32;42.16;99278.66;5092330;28;20442;-73
2021/07/03 09:21:31;;;;;;;6.03;4.70;;;;;;;26.42;41.61;99277.28;5092784;28;20462;-73
2021/07/03 09:24:01;;;;;;;6.13;5.30;;;;;;;26.58;41.14;99283.59;5092905;28;20430;-74
2021/07/03 09:26:28;;;;;;;8.33;6.70;;;;;;;26.86;41.31;99272.53;5094627;28;20446;-73
2021/07/03 09:28:55;;;;;;;7.90;6.60;;;;;;;26.61;41.56;99277.66;5112935;28;20496;-74
2021/07/03 09:31:21;;;;;;;6.33;5.33;;;;;;;26.81;40.68;99275.06;5112642;28;20425;-73
2021/07/03 09:33:49;;;;;;;6.03;5.43;;;;;;;26.78;40.14;99273.56;5112767;28;20447;-74
2021/07/03 09:36:24;;;;;;;5.20;4.80;;;;;;;26.75;39.02;99268.44;5113383;28;20475;-74
2021/07/03 09:38:53;;;;;;;5.37;4.97;;;;;;;26.94;39.81;99269.63;5113035;28;20452;-73
2021/07/03 09:41:22;;;;;;;5.53;4.87;;;;;;;27.11;39.37;99264.59;5113270;28;20436;-74
2021/07/03 09:43:57;;;;;;;8.27;5.77;;;;;;;26.97;38.65;99277.50;5094266;28;20434;-74
2021/07/03 09:46:24;;;;;;;5.73;5.23;;;;;;;26.88;38.34;99272.34;5093680;28;20987;-72
2021/07/03 09:48:53;;;;;;;5.53;4.50;;;;;;;26.95;38.60;99274.06;5092536;28;21026;-74
2021/07/03 09:51:25;;;;;;;5.90;5.30;;;;;;;26.79;38.63;99268.88;5092315;28;20427;-72
2021/07/03 09:53:52;;;;;;;5.77;5.27;;;;;;;26.77;39.37;99273.75;5092733;28;20831;-74
2021/07/03 09:56:19;;;;;;;5.40;4.90;;;;;;;26.93;39.51;99276.22;5092418;28;20513;-73
2021/07/03 09:58:47;;;;;;;7.43;5.63;;;;;;;26.88;39.99;99270.41;5091993;28;20476;-73
2021/07/03 10:01:14;;;;;;;7.50;6.80;;;;;;;27.11;39.31;99267.34;5092553;28;20536;-73
2021/07/03 10:03:41;;;;;;;6.30;5.70;;;;;;;27.15;38.60;99265.91;5092563;28;20465;-74
2021/07/03 10:06:10;;;;;;;7.90;6.10;;;;;;;26.98;39.17;99259.88;5092408;28;20436;-73
2021/07/03 10:08:40;;;;;;;7.57;6.53;;;;;;;26.92;39.71;99262.59;5092685;28;20490;-74
2021/07/03 10:11:10;;;;;;;7.47;6.70;;;;;;;26.78;40.00;99253.38;5092428;28;20480;-73
2021/07/03 10:13:40;;;;;;;6.00;5.40;;;;;;;26.75;40.17;99259.28;5092596;28;20922;-74
2021/07/03 10:16:09;;;;;;;6.63;5.93;;;;;;;27.02;40.23;99261.19;5091577;28;20442;-73
2021/07/03 10:18:37;;;;;;;6.70;5.37;;;;;;;26.97;39.80;99251.78;5093191;28;20513;-73
2021/07/03 10:21:09;;;;;;;6.60;6.00;;;;;;;26.92;40.73;99259.84;5109856;28;20494;-73
2021/07/03 10:23:36;;;;;;;6.07;5.53;;;;;;;27.38;39.60;99253.69;5112590;28;20484;-73
2021/07/03 10:26:03;;;;;;;5.67;5.17;;;;;;;27.55;39.06;99254.22;5105421;28;20430;-74
2021/07/03 10:28:32;;;;;;;6.27;5.67;;;;;;;27.55;38.99;99255.06;5091723;28;20477;-74
2021/07/03 10:31:05;;;;;;;6.97;4.80;;;;;;;27.58;38.64;99249.09;5091794;28;20477;-74
2021/07/03 10:33:47;;;;;;;13.43;9.57;;;;;;;27.19;38.22;99249.78;5092152;28;20465;-72
2021/07/03 10:36:27;;;;;;;6.03;5.43;;;;;;;27.21;37.56;99250.47;5096501;28;20514;-73
2021/07/03 10:38:54;;;;;;;5.67;5.20;;;;;;;27.42;37.01;99247.56;5111950;28;20504;-74
2021/07/03 10:41:24;;;;;;;5.47;4.93;;;;;;;27.22;37.03;99236.41;5112511;28;20434;-74
2021/07/03 10:43:53;;;;;;;5.80;5.23;;;;;;;27.24;37.21;99225.16;5112209;28;21002;-74
2021/07/03 10:46:31;;;;;;;5.33;4.63;;;;;;;27.37;36.87;99225.22;5112948;28;20523;-74
2021/07/03 10:49:02;;;;;;;6.67;5.00;;;;;;;27.47;37.22;99224.81;5112070;28;20464;-74
2021/07/03 10:51:31;;;;;;;6.50;5.90;;;;;;;27.55;37.12;99218.25;5091682;28;20967;-74
2021/07/03 10:54:10;;;;;;;6.60;4.93;;;;;;;27.35;37.20;99221.81;5091971;28;20923;-73
2021/07/03 10:56:41;;;;;;;4.93;4.53;;;;;;;27.22;37.56;99217.06;5091948;28;20779;-72
2021/07/03 10:59:13;;;;;;;8.93;4.77;;;;;;;27.30;37.12;99223.50;5091419;28;20437;-76
2021/07/03 11:01:40;;;;;;;6.93;6.23;;;;;;;27.48;37.00;99215.47;5091533;28;20434;-74
2021/07/03 11:04:16;;;;;;;5.47;4.97;;;;;;;27.58;37.26;99224.22;5091481;28;20560;-72
2021/07/03 11:06:45;;;;;;;6.23;5.63;;;;;;;27.32;37.65;99208.41;5091657;28;20465;-76
2021/07/03 11:09:19;;;;;;;6.67;6.07;;;;;;;27.38;37.48;99202.03;5091713;28;20577;-74
2021/07/03 11:11:46;;;;;;;6.07;4.97;;;;;;;27.56;37.38;99203.38;5091555;28;20448;-74
2021/07/03 11:14:17;;;;;;;7.43;6.67;;;;;;;27.73;36.71;99204.69;5091392;28;20445;-74
2021/07/03 11:16:50;;;;;;;5.33;4.83;;;;;;;27.83;36.50;99198.72;5091397;28;20434;-75
2021/07/03 11:19:23;;;;;;;9.90;9.00;;;;;;;27.62;37.12;99189.56;5103248;28;20457;-73
2021/07/03 11:21:50;;;;;;;6.20;5.60;;;;;;;27.67;37.27;99192.53;5111710;28;20435;-75